KMER

Castle Airport

Atwater, California, USA
METAR KMER 210415Z AUTO 10003KT 10SM CLR 04/03 A3023 RMK AO1
Observed Flight Rules
Jan-21 @ 04:15 UTC (29 minutes ago) Visual Flight Rules
Wind Visibility Clouds
100° at 3 knots 10 miles
  • Clear skies
Temperatures Readings
Current 4°C / 39°F
Dewpoint 3°C / 37°F
Humidity 93%
Altimeter 30.23" Hg
Pressure 1024 hPa
Elevation 57
METAR KMER 210415Z AUTO 10003KT 10SM CLR 04/03 A3023 RMK AO1
Observed Flight Rules
Jan-21 @ 04:15 UTC
(29 minutes ago)
VFR
Wind Visibility
100° at 3 knots 10 miles
Clouds
  • Clear skies
Temperature Dewpoint
4°C / 39°F 3°C / 37°F
Humidity Altimeter Pressure
93% 30.23" Hg 1024 hPa